DAL8914 KMSP-KMSN
Flight info
| Callsign | DAL8914 |
|---|---|
| Flight time | 0h 40m |
| Altitude | 25000 |
| Route | COULT7 DLL |
| Aircraft | B739/M-SDE2E3FGHIRWXY/LB1 |
Departure
| Time | 2026-04-26 03:27 |
|---|---|
| Airport | Minneapolis–Saint Paul International Airport / Wold–Chamberlain Field (KMSP) |
Arrival
| Time | 2026-04-26 04:08 |
|---|---|
| Airport | Dane County Regional Truax Field (KMSN) |
| Time | Latitude | Longitude | Altitude | Speed | Heading |
|---|---|---|---|---|---|
| 2026-04-26 03:06 | 44.88424 | -93.21560 | 806 ft | 0 kts | 199° |
| 2026-04-26 03:15 | 44.88428 | -93.21558 | 824 ft | 2 kts | 199° |
| 2026-04-26 03:15 | 44.88446 | -93.21550 | 821 ft | 3 kts | 199° |
| 2026-04-26 03:16 | 44.88461 | -93.21543 | 822 ft | 3 kts | 207° |
| 2026-04-26 03:16 | 44.88475 | -93.21528 | 822 ft | 3 kts | 240° |
| 2026-04-26 03:16 | 44.88479 | -93.21507 | 821 ft | 3 kts | 288° |
| 2026-04-26 03:16 | 44.88470 | -93.21482 | 824 ft | 3 kts | 305° |
| 2026-04-26 03:17 | 44.88459 | -93.21459 | 822 ft | 3 kts | 300° |
| 2026-04-26 03:17 | 44.88454 | -93.21447 | 822 ft | 0 kts | 293° |
| 2026-04-26 03:19 | 44.88454 | -93.21448 | 822 ft | 1 kts | 293° |
| 2026-04-26 03:20 | 44.88471 | -93.21483 | 824 ft | 8 kts | 309° |
| 2026-04-26 03:20 | 44.88513 | -93.21543 | 824 ft | 9 kts | 323° |
| 2026-04-26 03:20 | 44.88564 | -93.21583 | 825 ft | 8 kts | 334° |
| 2026-04-26 03:20 | 44.88608 | -93.21630 | 824 ft | 8 kts | 293° |
| 2026-04-26 03:21 | 44.88576 | -93.21718 | 824 ft | 15 kts | 224° |
| 2026-04-26 03:21 | 44.88488 | -93.21841 | 824 ft | 19 kts | 225° |
| 2026-04-26 03:21 | 44.88398 | -93.21967 | 825 ft | 18 kts | 224° |
| 2026-04-26 03:21 | 44.88312 | -93.22028 | 824 ft | 14 kts | 150° |
| 2026-04-26 03:22 | 44.88260 | -93.21921 | 824 ft | 13 kts | 121° |
| 2026-04-26 03:22 | 44.88205 | -93.21792 | 824 ft | 18 kts | 121° |
| 2026-04-26 03:22 | 44.88142 | -93.21645 | 824 ft | 17 kts | 122° |
| 2026-04-26 03:22 | 44.88079 | -93.21501 | 824 ft | 17 kts | 121° |
| 2026-04-26 03:23 | 44.88020 | -93.21366 | 824 ft | 16 kts | 121° |
| 2026-04-26 03:23 | 44.87964 | -93.21234 | 824 ft | 15 kts | 121° |
| 2026-04-26 03:23 | 44.87909 | -93.21108 | 824 ft | 15 kts | 122° |
| 2026-04-26 03:23 | 44.87850 | -93.20973 | 825 ft | 18 kts | 121° |
| 2026-04-26 03:24 | 44.87806 | -93.20869 | 824 ft | 19 kts | 121° |
| 2026-04-26 03:24 | 44.87739 | -93.20716 | 825 ft | 18 kts | 121° |
| 2026-04-26 03:24 | 44.87675 | -93.20568 | 824 ft | 17 kts | 121° |
| 2026-04-26 03:24 | 44.87614 | -93.20425 | 825 ft | 17 kts | 121° |
| 2026-04-26 03:25 | 44.87554 | -93.20288 | 825 ft | 16 kts | 121° |
| 2026-04-26 03:25 | 44.87497 | -93.20156 | 825 ft | 14 kts | 121° |
| 2026-04-26 03:25 | 44.87449 | -93.20083 | 826 ft | 10 kts | 160° |
| 2026-04-26 03:25 | 44.87384 | -93.20106 | 827 ft | 7 kts | 210° |
| 2026-04-26 03:26 | 44.87373 | -93.20165 | 826 ft | 6 kts | 290° |
| 2026-04-26 03:26 | 44.87389 | -93.20205 | 825 ft | 4 kts | 301° |
| 2026-04-26 03:26 | 44.87445 | -93.20336 | 824 ft | 44 kts | 301° |
| 2026-04-26 03:26 | 44.87738 | -93.21014 | 826 ft | 115 kts | 301° |
| 2026-04-26 03:27 | 44.88263 | -93.22202 | 901 ft | 161 kts | 306° |
| 2026-04-26 03:27 | 44.88859 | -93.23556 | 1574 ft | 165 kts | 301° |
| 2026-04-26 03:27 | 44.89125 | -93.25164 | 2309 ft | 177 kts | 268° |
| 2026-04-26 03:27 | 44.88671 | -93.26815 | 2852 ft | 194 kts | 232° |
| 2026-04-26 03:28 | 44.87649 | -93.28152 | 3324 ft | 209 kts | 217° |
| 2026-04-26 03:28 | 44.86506 | -93.29500 | 3848 ft | 221 kts | 218° |
| 2026-04-26 03:28 | 44.85314 | -93.30972 | 4417 ft | 231 kts | 218° |
| 2026-04-26 03:28 | 44.84102 | -93.32495 | 5188 ft | 234 kts | 218° |
| 2026-04-26 03:29 | 44.82914 | -93.34049 | 6095 ft | 231 kts | 219° |
| 2026-04-26 03:29 | 44.81767 | -93.35599 | 7096 ft | 226 kts | 220° |
| 2026-04-26 03:29 | 44.80650 | -93.37156 | 7975 ft | 225 kts | 219° |
| 2026-04-26 03:29 | 44.79322 | -93.38219 | 8814 ft | 223 kts | 192° |
| 2026-04-26 03:30 | 44.77744 | -93.38097 | 9432 ft | 238 kts | 164° |
| 2026-04-26 03:30 | 44.76293 | -93.36816 | 10084 ft | 256 kts | 141° |
| 2026-04-26 03:30 | 44.75278 | -93.34679 | 10756 ft | 273 kts | 118° |
| 2026-04-26 03:30 | 44.74696 | -93.32124 | 11367 ft | 284 kts | 110° |
| 2026-04-26 03:31 | 44.74220 | -93.29312 | 11624 ft | 308 kts | 108° |
| 2026-04-26 03:31 | 44.73742 | -93.26250 | 11813 ft | 332 kts | 107° |
| 2026-04-26 03:31 | 44.73232 | -93.22967 | 12011 ft | 354 kts | 107° |
| 2026-04-26 03:31 | 44.72687 | -93.19512 | 12446 ft | 367 kts | 107° |
| 2026-04-26 03:32 | 44.72122 | -93.15991 | 13104 ft | 372 kts | 108° |
| 2026-04-26 03:32 | 44.71538 | -93.12413 | 13791 ft | 377 kts | 108° |
| 2026-04-26 03:32 | 44.70938 | -93.08799 | 14388 ft | 381 kts | 108° |
| 2026-04-26 03:32 | 44.70328 | -93.05159 | 15042 ft | 384 kts | 108° |
| 2026-04-26 03:33 | 44.69709 | -93.01499 | 15694 ft | 387 kts | 108° |
| 2026-04-26 03:33 | 44.69080 | -92.97800 | 16323 ft | 391 kts | 107° |
| 2026-04-26 03:33 | 44.68443 | -92.94070 | 16921 ft | 395 kts | 107° |
| 2026-04-26 03:33 | 44.67797 | -92.90297 | 17511 ft | 399 kts | 107° |
| 2026-04-26 03:34 | 44.67144 | -92.86491 | 18101 ft | 403 kts | 107° |
| 2026-04-26 03:34 | 44.66481 | -92.82636 | 18642 ft | 407 kts | 107° |
| 2026-04-26 03:34 | 44.65822 | -92.78807 | 19184 ft | 410 kts | 107° |
| 2026-04-26 03:34 | 44.65148 | -92.74907 | 19768 ft | 411 kts | 107° |
| 2026-04-26 03:35 | 44.64471 | -92.70991 | 20329 ft | 413 kts | 107° |
| 2026-04-26 03:35 | 44.63787 | -92.67050 | 20899 ft | 416 kts | 107° |
| 2026-04-26 03:35 | 44.63100 | -92.63099 | 21448 ft | 418 kts | 108° |
| 2026-04-26 03:35 | 44.62407 | -92.59117 | 22056 ft | 419 kts | 108° |
| 2026-04-26 03:36 | 44.61718 | -92.55163 | 22838 ft | 415 kts | 108° |
| 2026-04-26 03:36 | 44.61035 | -92.51251 | 23664 ft | 410 kts | 108° |
| 2026-04-26 03:36 | 44.60363 | -92.47419 | 24256 ft | 409 kts | 108° |
| 2026-04-26 03:36 | 44.59681 | -92.43539 | 24749 ft | 411 kts | 108° |
| 2026-04-26 03:37 | 44.58991 | -92.39636 | 25065 ft | 414 kts | 108° |
| 2026-04-26 03:37 | 44.58298 | -92.35707 | 25061 ft | 414 kts | 108° |
| 2026-04-26 03:37 | 44.57610 | -92.31793 | 25065 ft | 413 kts | 108° |
| 2026-04-26 03:37 | 44.56920 | -92.27893 | 25066 ft | 413 kts | 108° |
| 2026-04-26 03:38 | 44.56224 | -92.23989 | 25068 ft | 413 kts | 109° |
| 2026-04-26 03:38 | 44.55373 | -92.20163 | 25056 ft | 408 kts | 117° |
| 2026-04-26 03:38 | 44.54107 | -92.16642 | 25068 ft | 403 kts | 124° |
| 2026-04-26 03:38 | 44.52734 | -92.13212 | 25059 ft | 403 kts | 124° |
| 2026-04-26 03:39 | 44.51350 | -92.09783 | 25053 ft | 404 kts | 124° |
| 2026-04-26 03:39 | 44.49969 | -92.06357 | 25055 ft | 404 kts | 124° |
| 2026-04-26 03:39 | 44.48589 | -92.02920 | 25050 ft | 405 kts | 124° |
| 2026-04-26 03:39 | 44.47214 | -91.99481 | 25048 ft | 405 kts | 124° |
| 2026-04-26 03:40 | 44.45839 | -91.96032 | 25043 ft | 406 kts | 124° |
| 2026-04-26 03:40 | 44.44466 | -91.92587 | 25048 ft | 406 kts | 124° |
| 2026-04-26 03:40 | 44.43091 | -91.89136 | 25044 ft | 406 kts | 124° |
| 2026-04-26 03:40 | 44.41716 | -91.85685 | 25045 ft | 406 kts | 124° |
| 2026-04-26 03:41 | 44.40334 | -91.82223 | 25044 ft | 407 kts | 124° |
| 2026-04-26 03:41 | 44.38954 | -91.78770 | 25042 ft | 407 kts | 124° |
| 2026-04-26 03:41 | 44.37591 | -91.75362 | 25038 ft | 407 kts | 124° |
| 2026-04-26 03:41 | 44.36205 | -91.71900 | 25043 ft | 407 kts | 124° |
| 2026-04-26 03:42 | 44.34821 | -91.68450 | 25050 ft | 408 kts | 124° |
| 2026-04-26 03:42 | 44.33432 | -91.64989 | 25044 ft | 408 kts | 124° |
| 2026-04-26 03:42 | 44.32042 | -91.61532 | 25049 ft | 408 kts | 124° |
| 2026-04-26 03:42 | 44.30649 | -91.58071 | 25040 ft | 409 kts | 124° |
| 2026-04-26 03:43 | 44.29254 | -91.54610 | 25040 ft | 409 kts | 124° |
| 2026-04-26 03:43 | 44.27861 | -91.51158 | 25046 ft | 409 kts | 124° |
| 2026-04-26 03:43 | 44.26463 | -91.47699 | 25041 ft | 409 kts | 124° |
| 2026-04-26 03:43 | 44.25063 | -91.44237 | 25044 ft | 409 kts | 124° |
| 2026-04-26 03:44 | 44.23663 | -91.40781 | 25046 ft | 410 kts | 124° |
| 2026-04-26 03:44 | 44.22255 | -91.37309 | 25041 ft | 410 kts | 124° |
| 2026-04-26 03:44 | 44.20864 | -91.33883 | 25038 ft | 410 kts | 124° |
| 2026-04-26 03:44 | 44.19459 | -91.30425 | 25032 ft | 411 kts | 124° |
| 2026-04-26 03:45 | 44.18046 | -91.26954 | 25038 ft | 411 kts | 124° |
| 2026-04-26 03:45 | 44.16634 | -91.23488 | 25048 ft | 411 kts | 124° |
| 2026-04-26 03:45 | 44.15222 | -91.20027 | 25062 ft | 411 kts | 124° |
| 2026-04-26 03:45 | 44.13805 | -91.16558 | 25060 ft | 412 kts | 124° |
| 2026-04-26 03:46 | 44.12386 | -91.13090 | 25048 ft | 412 kts | 124° |
| 2026-04-26 03:46 | 44.10963 | -91.09613 | 25060 ft | 412 kts | 124° |
| 2026-04-26 03:46 | 44.09563 | -91.06199 | 25062 ft | 412 kts | 124° |
| 2026-04-26 03:47 | 44.06722 | -90.99279 | 25059 ft | 411 kts | 124° |
| 2026-04-26 03:47 | 44.05314 | -90.95853 | 25036 ft | 402 kts | 124° |
| 2026-04-26 03:47 | 44.03951 | -90.92530 | 25059 ft | 390 kts | 125° |
| 2026-04-26 03:47 | 44.02608 | -90.89270 | 25064 ft | 387 kts | 125° |
| 2026-04-26 03:48 | 44.01272 | -90.86035 | 25073 ft | 386 kts | 125° |
| 2026-04-26 03:48 | 43.99925 | -90.82786 | 24824 ft | 390 kts | 125° |
| 2026-04-26 03:48 | 43.98579 | -90.79539 | 24520 ft | 387 kts | 125° |
| 2026-04-26 03:48 | 43.97236 | -90.76300 | 24116 ft | 386 kts | 125° |
| 2026-04-26 03:49 | 43.95903 | -90.73086 | 23735 ft | 383 kts | 125° |
| 2026-04-26 03:49 | 43.94595 | -90.69934 | 23281 ft | 381 kts | 125° |
| 2026-04-26 03:49 | 43.93261 | -90.66721 | 22824 ft | 378 kts | 125° |
| 2026-04-26 03:49 | 43.91970 | -90.63620 | 22420 ft | 374 kts | 125° |
| 2026-04-26 03:50 | 43.90675 | -90.60508 | 22000 ft | 371 kts | 125° |
| 2026-04-26 03:50 | 43.89388 | -90.57422 | 21574 ft | 369 kts | 125° |
| 2026-04-26 03:50 | 43.88108 | -90.54357 | 21151 ft | 366 kts | 126° |
| 2026-04-26 03:50 | 43.86835 | -90.51311 | 20743 ft | 363 kts | 126° |
| 2026-04-26 03:51 | 43.85570 | -90.48288 | 20345 ft | 361 kts | 126° |
| 2026-04-26 03:51 | 43.84316 | -90.45293 | 19951 ft | 358 kts | 126° |
| 2026-04-26 03:51 | 43.83073 | -90.42329 | 19569 ft | 355 kts | 126° |
| 2026-04-26 03:51 | 43.81835 | -90.39379 | 19169 ft | 353 kts | 126° |
| 2026-04-26 03:52 | 43.80605 | -90.36450 | 18791 ft | 350 kts | 126° |
| 2026-04-26 03:52 | 43.79381 | -90.33542 | 18408 ft | 348 kts | 126° |
| 2026-04-26 03:52 | 43.78181 | -90.30693 | 17975 ft | 346 kts | 126° |
| 2026-04-26 03:52 | 43.76970 | -90.27819 | 17559 ft | 344 kts | 126° |
| 2026-04-26 03:53 | 43.75767 | -90.24968 | 17151 ft | 341 kts | 126° |
| 2026-04-26 03:53 | 43.74576 | -90.22146 | 16760 ft | 338 kts | 126° |
| 2026-04-26 03:53 | 43.73392 | -90.19343 | 16374 ft | 336 kts | 126° |
| 2026-04-26 03:53 | 43.72218 | -90.16569 | 15983 ft | 333 kts | 126° |
| 2026-04-26 03:54 | 43.71050 | -90.13812 | 15601 ft | 331 kts | 125° |
| 2026-04-26 03:54 | 43.69886 | -90.11065 | 15229 ft | 329 kts | 125° |
| 2026-04-26 03:54 | 43.68730 | -90.08341 | 14857 ft | 328 kts | 125° |
| 2026-04-26 03:54 | 43.67579 | -90.05632 | 14493 ft | 326 kts | 125° |
| 2026-04-26 03:55 | 43.66430 | -90.02929 | 14111 ft | 326 kts | 125° |
| 2026-04-26 03:55 | 43.65294 | -90.00262 | 13737 ft | 325 kts | 124° |
| 2026-04-26 03:55 | 43.64136 | -89.97541 | 13314 ft | 324 kts | 124° |
| 2026-04-26 03:55 | 43.62995 | -89.94863 | 12921 ft | 322 kts | 124° |
| 2026-04-26 03:56 | 43.61875 | -89.92237 | 12557 ft | 320 kts | 124° |
| 2026-04-26 03:56 | 43.60750 | -89.89603 | 12188 ft | 318 kts | 124° |
| 2026-04-26 03:56 | 43.59627 | -89.86974 | 11808 ft | 316 kts | 123° |
| 2026-04-26 03:56 | 43.58514 | -89.84372 | 11442 ft | 314 kts | 123° |
| 2026-04-26 03:57 | 43.57404 | -89.81777 | 11069 ft | 313 kts | 123° |
| 2026-04-26 03:57 | 43.56301 | -89.79204 | 10709 ft | 311 kts | 123° |
| 2026-04-26 03:57 | 43.55208 | -89.76656 | 10332 ft | 305 kts | 123° |
| 2026-04-26 03:57 | 43.54191 | -89.74161 | 10156 ft | 290 kts | 121° |
| 2026-04-26 03:58 | 43.53279 | -89.71793 | 9917 ft | 279 kts | 120° |
| 2026-04-26 03:58 | 43.52385 | -89.69451 | 9566 ft | 272 kts | 120° |
| 2026-04-26 03:58 | 43.51517 | -89.67183 | 9248 ft | 264 kts | 120° |
| 2026-04-26 03:58 | 43.50669 | -89.64976 | 8962 ft | 258 kts | 120° |
| 2026-04-26 03:59 | 43.50384 | -89.64236 | 8861 ft | 258 kts | 120° |
| 2026-04-26 03:59 | 43.49878 | -89.62924 | 8648 ft | 258 kts | 120° |
| 2026-04-26 03:59 | 43.49038 | -89.60750 | 8387 ft | 256 kts | 120° |
| 2026-04-26 03:59 | 43.48201 | -89.58588 | 8087 ft | 255 kts | 120° |
| 2026-04-26 04:00 | 43.47366 | -89.56437 | 7790 ft | 254 kts | 120° |
| 2026-04-26 04:00 | 43.46535 | -89.54298 | 7508 ft | 253 kts | 119° |
| 2026-04-26 04:00 | 43.45718 | -89.52196 | 7207 ft | 252 kts | 119° |
| 2026-04-26 04:00 | 43.44890 | -89.50067 | 6908 ft | 252 kts | 118° |
| 2026-04-26 04:01 | 43.44063 | -89.47944 | 6609 ft | 252 kts | 118° |
| 2026-04-26 04:01 | 43.43233 | -89.45811 | 6294 ft | 254 kts | 118° |
| 2026-04-26 04:01 | 43.42396 | -89.43664 | 5969 ft | 254 kts | 118° |
| 2026-04-26 04:01 | 43.41561 | -89.41522 | 5638 ft | 254 kts | 118° |
| 2026-04-26 04:02 | 43.40725 | -89.39384 | 5319 ft | 252 kts | 118° |
| 2026-04-26 04:02 | 43.39897 | -89.37267 | 5013 ft | 251 kts | 117° |
| 2026-04-26 04:02 | 43.39050 | -89.35176 | 4682 ft | 250 kts | 124° |
| 2026-04-26 04:02 | 43.37744 | -89.33682 | 4352 ft | 246 kts | 158° |
| 2026-04-26 04:03 | 43.36120 | -89.33347 | 4375 ft | 228 kts | 171° |
| 2026-04-26 04:03 | 43.34558 | -89.33235 | 4265 ft | 221 kts | 174° |
| 2026-04-26 04:03 | 43.33052 | -89.33261 | 4167 ft | 212 kts | 176° |
| 2026-04-26 04:03 | 43.31630 | -89.33327 | 4078 ft | 200 kts | 176° |
| 2026-04-26 04:04 | 43.30260 | -89.33393 | 3943 ft | 194 kts | 176° |
| 2026-04-26 04:04 | 43.28934 | -89.33455 | 3705 ft | 187 kts | 175° |
| 2026-04-26 04:04 | 43.27660 | -89.33514 | 3458 ft | 180 kts | 175° |
| 2026-04-26 04:04 | 43.26431 | -89.33571 | 3223 ft | 174 kts | 174° |
| 2026-04-26 04:05 | 43.25221 | -89.33624 | 2989 ft | 174 kts | 175° |
| 2026-04-26 04:05 | 43.24011 | -89.33680 | 2757 ft | 173 kts | 175° |
| 2026-04-26 04:05 | 43.22824 | -89.33736 | 2544 ft | 170 kts | 175° |
| 2026-04-26 04:05 | 43.21643 | -89.33790 | 2294 ft | 173 kts | 176° |
| 2026-04-26 04:06 | 43.20489 | -89.33846 | 2087 ft | 161 kts | 176° |
| 2026-04-26 04:06 | 43.19408 | -89.33895 | 1861 ft | 153 kts | 177° |
| 2026-04-26 04:06 | 43.18338 | -89.33946 | 1645 ft | 154 kts | 178° |
| 2026-04-26 04:06 | 43.17265 | -89.33991 | 1395 ft | 154 kts | 179° |
| 2026-04-26 04:07 | 43.16212 | -89.34041 | 1199 ft | 149 kts | 179° |
| 2026-04-26 04:07 | 43.15176 | -89.34093 | 978 ft | 149 kts | 180° |
| 2026-04-26 04:07 | 43.14163 | -89.34135 | 871 ft | 135 kts | 180° |
| 2026-04-26 04:07 | 43.13439 | -89.34171 | 857 ft | 73 kts | 181° |
| 2026-04-26 04:08 | 43.13098 | -89.34185 | 869 ft | 41 kts | 182° |
| 2026-04-26 04:08 | 43.12854 | -89.34197 | 870 ft | 29 kts | 182° |
| 2026-04-26 04:08 | 43.12746 | -89.34249 | 870 ft | 16 kts | 247° |
| 2026-04-26 04:08 | 43.12743 | -89.34396 | 872 ft | 15 kts | 282° |
| 2026-04-26 04:09 | 43.12827 | -89.34456 | 873 ft | 15 kts | 0° |
| 2026-04-26 04:09 | 43.12944 | -89.34452 | 871 ft | 20 kts | 1° |
| 2026-04-26 04:09 | 43.13086 | -89.34439 | 871 ft | 21 kts | 6° |
| 2026-04-26 04:09 | 43.13227 | -89.34412 | 869 ft | 20 kts | 7° |
| 2026-04-26 04:10 | 43.13362 | -89.34379 | 853 ft | 19 kts | 20° |
| 2026-04-26 04:10 | 43.13487 | -89.34320 | 860 ft | 19 kts | 7° |
| 2026-04-26 04:10 | 43.13615 | -89.34313 | 856 ft | 18 kts | 1° |
| 2026-04-26 04:10 | 43.13739 | -89.34308 | 855 ft | 18 kts | 2° |
| 2026-04-26 04:11 | 43.13843 | -89.34337 | 867 ft | 14 kts | 302° |
| 2026-04-26 04:11 | 43.13852 | -89.34465 | 853 ft | 10 kts | 259° |
| 2026-04-26 04:11 | 43.13817 | -89.34521 | 849 ft | 3 kts | 216° |
| 2026-04-26 04:11 | 43.13808 | -89.34528 | 863 ft | 0 kts | 215° |